Time;durP1;ratioP1;P1;durP2;ratioP2;P2;SDS_P1;SDS_P2;PMS_P1;PMS_P2;Temp;Humidity;BMP_temperature;BMP_pressure;BME280_temperature;BME280_humidity;BME280_pressure;Samples;Min_cycle;Max_cycle;Signal;HPM_P1;HPM_P2
2021/12/15 00:01:38;;;;;;;96.05;31.60;;;;;;;8.07;100.00;102972.09;5213934;28;20029;-73
2021/12/15 00:04:08;;;;;;;105.63;32.05;;;;;;;8.04;100.00;102966.97;5200224;28;20052;-73
2021/12/15 00:06:39;;;;;;;105.88;33.05;;;;;;;8.03;100.00;102976.81;5200257;28;20021;-73
2021/12/15 00:09:12;;;;;;;107.35;32.05;;;;;;;8.03;100.00;102975.91;5199119;28;20025;-72
2021/12/15 00:11:45;;;;;;;105.45;30.75;;;;;;;8.01;100.00;102986.72;5200086;28;20539;-73
2021/12/15 00:14:19;;;;;;;102.38;31.80;;;;;;;8.03;100.00;102971.47;5199795;28;20518;-73
2021/12/15 00:16:50;;;;;;;115.70;32.77;;;;;;;8.03;100.00;102978.59;5200044;28;20445;-72
2021/12/15 00:19:21;;;;;;;101.47;32.05;;;;;;;8.01;100.00;102967.16;5200140;28;20087;-72
2021/12/15 00:21:51;;;;;;;101.50;32.00;;;;;;;8.03;100.00;102967.91;5200164;28;20025;-72
2021/12/15 00:24:22;;;;;;;109.60;32.63;;;;;;;8.02;100.00;102964.38;5199455;28;20026;-73
2021/12/15 00:26:54;;;;;;;113.53;32.03;;;;;;;8.02;100.00;102964.38;5200290;28;20108;-73
2021/12/15 00:29:25;;;;;;;99.25;30.13;;;;;;;8.02;100.00;102963.50;5200009;28;20025;-73
2021/12/15 00:31:57;;;;;;;104.78;30.27;;;;;;;8.01;100.00;102951.97;5200296;28;20575;-73
2021/12/15 00:34:28;;;;;;;110.53;30.88;;;;;;;7.99;100.00;102955.72;5200155;28;20472;-73
2021/12/15 00:36:58;;;;;;;105.70;31.60;;;;;;;8.02;100.00;102953.69;5199993;28;20053;-73
2021/12/15 00:39:29;;;;;;;100.65;30.38;;;;;;;7.95;100.00;102957.72;5200292;28;20057;-73
2021/12/15 00:42:00;;;;;;;99.10;31.73;;;;;;;7.97;100.00;102955.78;5200046;28;20032;-73
2021/12/15 00:44:31;;;;;;;97.63;31.48;;;;;;;7.99;100.00;102969.94;5199605;28;20032;-73
2021/12/15 00:47:03;;;;;;;93.57;31.00;;;;;;;7.98;100.00;102957.53;5199832;28;20057;-73
2021/12/15 00:49:34;;;;;;;99.75;31.85;;;;;;;8.00;100.00;102965.44;5199847;28;20022;-73
2021/12/15 00:52:06;;;;;;;115.50;32.47;;;;;;;7.97;100.00;102957.59;5200309;28;20029;-73
2021/12/15 00:54:37;;;;;;;98.68;29.42;;;;;;;7.98;100.00;102965.56;5199936;28;20028;-73
2021/12/15 00:57:08;;;;;;;99.70;28.80;;;;;;;7.99;100.00;102956.56;5199760;28;20021;-73
2021/12/15 00:59:38;;;;;;;100.78;29.95;;;;;;;8.01;100.00;102968.00;5198914;28;20065;-73
2021/12/15 01:02:09;;;;;;;101.97;31.05;;;;;;;8.03;100.00;102959.88;5202055;28;20108;-73
2021/12/15 01:04:40;;;;;;;98.07;30.48;;;;;;;8.04;100.00;102961.63;5203144;28;20029;-73
2021/12/15 01:07:12;;;;;;;86.63;26.02;;;;;;;8.03;100.00;102951.84;5203447;28;20060;-73
2021/12/15 01:09:53;;;;;;;96.45;28.88;;;;;;;8.04;100.00;102956.28;5203749;28;20049;-73
2021/12/15 01:14:27;;;;;;;93.97;27.83;;;;;;;8.03;100.00;102960.78;5203014;28;20030;-73
2021/12/15 01:21:15;;;;;;;81.00;25.65;;;;;;;8.03;100.00;102958.09;5203564;28;20159;-73
2021/12/15 01:23:46;;;;;;;88.00;26.73;;;;;;;8.03;100.00;102962.56;5202025;28;20026;-73
2021/12/15 01:26:16;;;;;;;83.35;26.90;;;;;;;8.04;100.00;102962.47;5202968;28;20036;-73
2021/12/15 01:28:47;;;;;;;78.80;27.23;;;;;;;8.07;100.00;102958.72;5203678;28;20062;-73
2021/12/15 01:31:18;;;;;;;87.72;26.10;;;;;;;8.02;100.00;102959.03;5202573;28;20029;-73
2021/12/15 01:33:48;;;;;;;86.47;26.40;;;;;;;7.99;100.00;102969.94;5203006;28;20033;-73
2021/12/15 01:36:19;;;;;;;90.53;27.00;;;;;;;8.01;100.00;102957.31;5198970;28;20017;-73
2021/12/15 01:38:51;;;;;;;84.30;26.40;;;;;;;8.04;100.00;102966.97;5199598;28;20032;-73
2021/12/15 01:41:23;;;;;;;90.05;27.65;;;;;;;8.07;100.00;102971.25;5189067;28;20022;-73
2021/12/15 01:46:55;;;;;;;89.50;27.55;;;;;;;8.03;100.00;102973.25;5202762;28;20033;-73
2021/12/15 01:49:28;;;;;;;91.38;28.50;;;;;;;8.02;100.00;102960.84;5201559;28;20029;-73
2021/12/15 01:52:02;;;;;;;90.80;27.98;;;;;;;8.05;100.00;102964.19;5200818;28;20026;-73
2021/12/15 01:54:34;;;;;;;86.65;27.30;;;;;;;8.03;100.00;102963.44;5202696;28;20025;-73
2021/12/15 01:57:05;;;;;;;82.50;25.98;;;;;;;8.05;100.00;102982.91;5201113;28;20021;-73
2021/12/15 01:59:36;;;;;;;84.20;24.95;;;;;;;8.04;100.00;102975.84;5204828;28;20029;-73
2021/12/15 02:02:07;;;;;;;90.60;28.50;;;;;;;8.08;100.00;102984.50;5203870;28;20397;-73
2021/12/15 02:04:39;;;;;;;88.15;26.75;;;;;;;8.07;100.00;102984.63;5205529;28;20432;-73
2021/12/15 02:07:14;;;;;;;89.47;27.25;;;;;;;8.07;100.00;102979.25;5202915;28;20068;-73
2021/12/15 02:12:31;;;;;;;84.80;26.00;;;;;;;8.05;100.00;102987.41;5202380;28;20029;-73
2021/12/15 02:15:07;;;;;;;84.85;26.08;;;;;;;8.09;100.00;102985.38;5201288;28;20648;-73
2021/12/15 02:17:39;;;;;;;88.00;26.05;;;;;;;8.08;100.00;102986.31;5201003;28;20056;-73
2021/12/15 02:20:14;;;;;;;85.78;26.15;;;;;;;8.07;100.00;102982.78;5198014;28;20040;-73
2021/12/15 02:22:45;;;;;;;98.50;30.98;;;;;;;8.07;100.00;102989.97;5201961;28;20397;-73
2021/12/15 02:25:17;;;;;;;98.90;28.65;;;;;;;8.03;100.00;102992.84;5201219;28;20112;-73
2021/12/15 02:27:47;;;;;;;93.43;26.73;;;;;;;8.05;100.00;102996.25;5201995;28;20044;-73
2021/12/15 02:30:42;;;;;;;88.32;26.92;;;;;;;8.05;100.00;102993.59;5201888;28;20052;-73
2021/12/15 02:38:45;;;;;;;106.28;28.70;;;;;;;8.06;100.00;102989.09;5201594;28;20033;-73
2021/12/15 02:41:23;;;;;;;101.47;28.75;;;;;;;8.05;100.00;102998.09;5206110;28;20104;-73
2021/12/15 02:43:58;;;;;;;100.55;28.90;;;;;;;8.05;100.00;103001.63;5201657;28;20439;-73
2021/12/15 02:46:39;;;;;;;117.07;30.42;;;;;;;8.02;100.00;103004.47;5201693;28;20267;-73
2021/12/15 02:49:14;;;;;;;111.47;28.20;;;;;;;8.02;100.00;102990.25;5202143;28;20029;-73
2021/12/15 02:51:47;;;;;;;120.07;30.05;;;;;;;8.00;100.00;102995.69;5201692;28;20389;-73
2021/12/15 02:54:20;;;;;;;109.60;29.15;;;;;;;8.00;100.00;102995.69;5201196;28;20021;-73
2021/12/15 02:56:53;;;;;;;125.05;31.25;;;;;;;8.01;100.00;102992.06;5200417;28;20430;-73
2021/12/15 02:59:31;;;;;;;126.78;30.73;;;;;;;8.01;100.00;102988.53;5201472;28;20028;-73
2021/12/15 03:02:13;;;;;;;115.35;31.88;;;;;;;8.00;100.00;102976.13;5201908;28;20028;-73
2021/12/15 03:04:50;;;;;;;134.45;32.28;;;;;;;7.99;100.00;102977.94;5201041;28;20376;-73
2021/12/15 03:07:32;;;;;;;130.10;32.42;;;;;;;7.99;100.00;102977.09;5200968;28;20037;-73
2021/12/15 03:15:47;;;;;;;118.28;28.98;;;;;;;7.93;100.00;102974.78;5200613;28;20072;-73
2021/12/15 03:18:22;;;;;;;116.32;30.25;;;;;;;7.93;100.00;102975.69;5201217;28;20052;-73
2021/12/15 03:20:57;;;;;;;115.10;30.55;;;;;;;7.94;100.00;102969.38;5188140;28;20060;-73
2021/12/15 03:23:36;;;;;;;120.93;29.52;;;;;;;7.93;100.00;102970.34;5201019;28;20029;-73
2021/12/15 03:26:08;;;;;;;126.15;30.70;;;;;;;7.92;100.00;102970.41;5200724;28;20079;-73
2021/12/15 03:34:39;;;;;;;117.63;29.17;;;;;;;7.97;100.00;102966.47;5200226;28;20018;-73
2021/12/15 03:37:23;;;;;;;114.40;29.77;;;;;;;7.97;100.00;102973.63;5188198;28;20041;-73
2021/12/15 03:40:07;;;;;;;129.95;30.77;;;;;;;7.99;100.00;102977.94;5204760;28;20025;-73
2021/12/15 03:42:43;;;;;;;107.60;29.83;;;;;;;7.97;100.00;102985.19;5197084;28;20390;-73
2021/12/15 03:45:19;;;;;;;127.25;32.05;;;;;;;7.98;100.00;102984.25;5187646;28;20021;-73
2021/12/15 03:47:53;;;;;;;124.38;28.73;;;;;;;7.96;100.00;102986.16;5200688;28;20086;-73
2021/12/15 03:50:25;;;;;;;116.78;29.20;;;;;;;8.00;100.00;102993.03;5200664;28;20017;-73
2021/12/15 03:52:56;;;;;;;116.93;29.48;;;;;;;8.02;100.00;102999.13;5200171;28;20030;-73
2021/12/15 03:55:30;;;;;;;117.30;29.38;;;;;;;8.01;100.00;102994.75;5200191;28;20040;-73
2021/12/15 03:58:06;;;;;;;113.60;30.95;;;;;;;8.01;100.00;103005.44;5200464;28;20036;-73
2021/12/15 04:00:41;;;;;;;117.40;30.27;;;;;;;7.97;100.00;102995.03;5200306;28;20025;-73
2021/12/15 04:03:20;;;;;;;114.50;30.98;;;;;;;7.98;100.00;102994.94;5200418;28;20021;-73
2021/12/15 04:05:50;;;;;;;126.68;31.73;;;;;;;7.98;100.00;103005.66;5199877;28;20512;-73
2021/12/15 04:08:21;;;;;;;121.90;28.10;;;;;;;8.03;100.00;103011.56;5200490;28;20029;-72
2021/12/15 04:10:53;;;;;;;113.00;30.25;;;;;;;8.01;100.00;103007.25;5200367;28;20422;-73
2021/12/15 04:13:23;;;;;;;112.57;29.67;;;;;;;8.03;100.00;103011.56;5199560;28;20036;-73
2021/12/15 04:15:57;;;;;;;115.78;30.70;;;;;;;8.03;100.00;103008.88;5186766;28;20021;-73
2021/12/15 04:18:27;;;;;;;107.22;28.70;;;;;;;8.04;100.00;103007.91;5200338;28;20036;-73
2021/12/15 04:20:58;;;;;;;111.95;28.52;;;;;;;8.04;100.00;102997.22;5200587;28;20018;-73
2021/12/15 04:23:28;;;;;;;106.75;29.48;;;;;;;8.01;100.00;102999.22;5200277;28;20021;-73
2021/12/15 04:26:00;;;;;;;112.22;29.30;;;;;;;8.02;100.00;103000.94;5199985;28;20040;-73
2021/12/15 04:28:34;;;;;;;112.95;28.63;;;;;;;8.00;100.00;103002.88;5198947;28;20057;-73
2021/12/15 04:31:09;;;;;;;115.80;29.17;;;;;;;7.98;100.00;103007.44;5199192;28;20571;-73
2021/12/15 04:33:42;;;;;;;110.72;28.33;;;;;;;8.00;100.00;103008.22;5200207;28;20026;-73
2021/12/15 04:36:14;;;;;;;107.88;29.10;;;;;;;8.00;100.00;103011.75;5200508;28;20025;-74
2021/12/15 04:38:46;;;;;;;111.68;28.77;;;;;;;8.02;100.00;103009.81;5204061;28;20029;-73
2021/12/15 04:41:18;;;;;;;108.18;29.60;;;;;;;8.01;100.00;103016.13;5204308;28;20056;-73
2021/12/15 04:43:58;;;;;;;112.53;29.05;;;;;;;8.01;100.00;103016.13;5204717;28;20029;-73
2021/12/15 04:46:32;;;;;;;106.53;27.52;;;;;;;8.01;100.00;103017.94;5202858;28;20064;-73
2021/12/15 04:49:05;;;;;;;117.97;29.27;;;;;;;8.01;100.00;103015.25;5203891;28;20032;-73
2021/12/15 04:51:35;;;;;;;108.38;28.17;;;;;;;7.98;100.00;103013.66;5204739;28;20495;-73
2021/12/15 04:54:07;;;;;;;115.43;28.48;;;;;;;7.98;100.00;103016.34;5204352;28;20026;-73
2021/12/15 04:56:38;;;;;;;108.25;29.10;;;;;;;7.96;100.00;103015.56;5204392;28;20643;-73
2021/12/15 04:59:09;;;;;;;110.05;27.58;;;;;;;7.93;100.00;103029.13;5204025;28;20091;-73
2021/12/15 05:01:40;;;;;;;97.45;26.70;;;;;;;7.95;100.00;103016.50;5202424;28;20060;-73
2021/12/15 05:04:11;;;;;;;114.28;27.52;;;;;;;7.96;100.00;103017.38;5203477;28;20033;-73
2021/12/15 05:06:43;;;;;;;113.53;30.05;;;;;;;7.96;100.00;103014.69;5203696;28;20037;-73
2021/12/15 05:09:15;;;;;;;100.57;26.63;;;;;;;7.95;100.00;103021.00;5203489;28;20025;-73
2021/12/15 05:11:47;;;;;;;109.63;28.67;;;;;;;7.95;100.00;103021.88;5202537;28;20108;-73
2021/12/15 05:14:19;;;;;;;98.63;28.92;;;;;;;7.96;100.00;103028.06;5202909;28;20022;-73
2021/12/15 05:16:51;;;;;;;101.82;28.08;;;;;;;7.93;100.00;103020.22;5203544;28;20096;-73
2021/12/15 05:19:24;;;;;;;106.05;27.77;;;;;;;7.91;100.00;103028.34;5202258;28;20135;-73
2021/12/15 05:21:57;;;;;;;98.57;29.20;;;;;;;7.92;100.00;103022.03;5203316;28;20044;-73
2021/12/15 05:27:05;;;;;;;95.40;27.92;;;;;;;7.96;100.00;103028.06;5203081;28;20108;-73
2021/12/15 05:29:37;;;;;;;98.20;27.40;;;;;;;7.94;100.00;103024.63;5203453;28;20477;-73
2021/12/15 05:32:09;;;;;;;103.80;27.48;;;;;;;7.94;100.00;103028.16;5203625;28;20371;-73
2021/12/15 05:34:40;;;;;;;98.03;27.70;;;;;;;7.96;100.00;103033.41;5202766;28;20014;-73
2021/12/15 05:37:11;;;;;;;106.40;27.98;;;;;;;7.99;100.00;103030.56;5202720;28;20052;-73
2021/12/15 05:39:42;;;;;;;102.07;27.73;;;;;;;7.98;100.00;103032.38;5205412;28;20024;-73
2021/12/15 05:42:13;;;;;;;107.50;28.52;;;;;;;8.02;100.00;103033.00;5206768;28;20520;-73
2021/12/15 05:44:44;;;;;;;90.97;26.13;;;;;;;8.01;100.00;103026.81;5202732;28;20025;-73
2021/12/15 05:47:15;;;;;;;110.63;28.15;;;;;;;8.00;100.00;103038.47;5202525;28;20029;-73
2021/12/15 05:49:48;;;;;;;99.00;27.85;;;;;;;8.02;100.00;103031.19;5202234;28;20029;-73
2021/12/15 05:52:19;;;;;;;102.82;27.67;;;;;;;8.03;100.00;103035.63;5203215;28;20025;-73
2021/12/15 05:54:50;;;;;;;104.22;27.52;;;;;;;8.04;100.00;103039.16;5202274;28;20109;-73
2021/12/15 05:57:20;;;;;;;100.95;27.90;;;;;;;8.04;100.00;103036.47;5203068;28;20120;-73
2021/12/15 05:59:51;;;;;;;108.50;28.52;;;;;;;8.02;100.00;103039.22;5202265;28;20017;-73
2021/12/15 06:02:22;;;;;;;96.03;28.55;;;;;;;8.02;100.00;103028.53;5203007;28;20091;-73
2021/12/15 06:04:52;;;;;;;96.80;27.15;;;;;;;8.05;100.00;103041.72;5202204;28;20029;-74
2021/12/15 06:07:22;;;;;;;100.68;29.13;;;;;;;8.04;100.00;103040.00;5202219;28;20112;-73
2021/12/15 06:09:53;;;;;;;96.82;27.95;;;;;;;8.03;100.00;103035.63;5201424;28;20035;-73
2021/12/15 06:12:24;;;;;;;102.85;26.85;;;;;;;8.07;100.00;103043.41;5201948;28;20037;-72
2021/12/15 06:14:54;;;;;;;110.50;30.38;;;;;;;8.06;100.00;103047.91;5202181;28;20024;-73
2021/12/15 06:17:26;;;;;;;106.95;28.42;;;;;;;8.07;100.00;103041.59;5202601;28;20029;-73
2021/12/15 06:19:57;;;;;;;108.43;29.77;;;;;;;8.08;100.00;103045.13;5202459;28;20017;-73
2021/12/15 06:22:29;;;;;;;106.07;28.55;;;;;;;8.07;100.00;103048.78;5202252;28;20022;-73
2021/12/15 06:24:59;;;;;;;108.93;29.45;;;;;;;8.05;100.00;103049.72;5201210;28;20021;-73
2021/12/15 06:27:34;;;;;;;111.03;31.10;;;;;;;8.09;100.00;103054.91;5202249;28;20045;-73
2021/12/15 06:30:06;;;;;;;115.32;29.10;;;;;;;8.10;100.00;103059.28;5202314;28;20513;-73
2021/12/15 06:32:36;;;;;;;104.35;30.80;;;;;;;8.10;100.00;103052.13;5202091;28;20028;-73
2021/12/15 06:35:08;;;;;;;115.05;31.20;;;;;;;8.13;100.00;103056.41;5200104;28;20021;-73
2021/12/15 06:37:38;;;;;;;111.00;33.58;;;;;;;8.13;100.00;103051.06;5201883;28;20108;-73
2021/12/15 06:40:10;;;;;;;105.10;31.40;;;;;;;8.15;100.00;103046.50;5201971;28;20536;-73
2021/12/15 06:42:42;;;;;;;98.63;29.88;;;;;;;8.12;100.00;103054.69;5201734;28;20485;-73
2021/12/15 06:45:17;;;;;;;103.20;28.55;;;;;;;8.13;100.00;103056.41;5201623;28;20456;-73
2021/12/15 06:59:01;;;;;;;97.03;29.45;;;;;;;8.21;100.00;103065.66;5200904;28;20040;-73
2021/12/15 07:01:32;;;;;;;97.15;31.13;;;;;;;8.17;100.00;103074.81;5201491;28;20025;-73
2021/12/15 07:04:02;;;;;;;104.70;30.40;;;;;;;8.19;100.00;103072.94;5201110;28;20120;-74
2021/12/15 07:06:33;;;;;;;99.20;29.40;;;;;;;8.21;100.00;103073.69;5200443;28;20060;-73
2021/12/15 07:09:04;;;;;;;102.03;31.30;;;;;;;8.24;100.00;103078.00;5201358;28;20452;-73
2021/12/15 07:11:34;;;;;;;95.25;29.58;;;;;;;8.22;100.00;103074.53;5200508;28;20464;-73
2021/12/15 07:14:05;;;;;;;93.05;29.50;;;;;;;8.25;100.00;103072.53;5201243;28;20029;-74
2021/12/15 07:16:41;;;;;;;88.45;29.65;;;;;;;8.28;100.00;103084.84;5201565;28;20021;-73
2021/12/15 07:19:31;;;;;;;86.80;28.30;;;;;;;8.27;100.00;103086.66;5200682;28;20477;-73
2021/12/15 07:22:16;;;;;;;79.05;26.33;;;;;;;8.27;100.00;103085.81;5201238;28;20481;-73
2021/12/15 07:24:46;;;;;;;88.65;26.90;;;;;;;8.26;100.00;103090.31;5200450;28;20047;-74
2021/12/15 07:27:17;;;;;;;86.05;28.63;;;;;;;8.27;100.00;103091.16;5200780;28;20017;-73
2021/12/15 07:29:47;;;;;;;89.35;28.52;;;;;;;8.24;100.00;103088.69;5200661;28;20021;-74
2021/12/15 07:32:18;;;;;;;83.90;27.35;;;;;;;8.23;100.00;103089.63;5199615;28;20021;-74
2021/12/15 07:34:49;;;;;;;79.65;25.48;;;;;;;8.24;100.00;103094.91;5200490;28;20028;-74
2021/12/15 07:37:19;;;;;;;84.00;27.80;;;;;;;8.24;100.00;103099.38;5193432;28;20033;-73
2021/12/15 07:39:57;;;;;;;87.00;28.10;;;;;;;8.30;100.00;103099.00;5199282;28;20084;-73
2021/12/15 07:42:35;;;;;;;78.63;27.67;;;;;;;8.29;100.00;103094.63;5196402;28;20037;-74
2021/12/15 07:45:06;;;;;;;83.22;27.02;;;;;;;8.29;100.00;103099.97;5198484;28;20021;-73
2021/12/15 07:47:38;;;;;;;79.13;25.77;;;;;;;8.31;100.00;103092.69;5200435;28;20535;-73
2021/12/15 07:50:09;;;;;;;83.30;28.88;;;;;;;8.34;100.00;103102.34;5200604;28;20057;-73
2021/12/15 07:52:39;;;;;;;76.05;26.83;;;;;;;8.34;100.00;103105.88;5200618;28;20057;-73
2021/12/15 07:55:12;;;;;;;76.28;26.05;;;;;;;8.36;100.00;103109.34;5200055;28;20014;-74
2021/12/15 07:57:43;;;;;;;76.97;25.40;;;;;;;8.35;100.00;103112.94;5200560;28;20842;-75
2021/12/15 08:00:15;;;;;;;75.68;24.65;;;;;;;8.36;100.00;103113.78;5199783;28;20030;-72
2021/12/15 08:02:46;;;;;;;74.50;25.75;;;;;;;8.40;100.00;103112.69;5199589;28;20029;-74
2021/12/15 08:05:17;;;;;;;84.25;32.47;;;;;;;8.45;100.00;103119.47;5198336;28;20033;-75
2021/12/15 08:07:48;;;;;;;76.57;24.75;;;;;;;8.47;100.00;103117.53;5200309;28;20036;-74
2021/12/15 08:10:18;;;;;;;72.32;24.63;;;;;;;8.44;100.00;103116.88;5198795;28;20029;-75
2021/12/15 08:12:49;;;;;;;80.57;28.13;;;;;;;8.45;100.00;103116.78;5203453;28;20025;-74
2021/12/15 08:15:20;;;;;;;100.13;45.63;;;;;;;8.48;100.00;103124.63;5203392;28;20024;-74
2021/12/15 08:17:52;;;;;;;73.35;25.05;;;;;;;8.47;100.00;103122.88;5204663;28;20176;-73
2021/12/15 08:20:25;;;;;;;72.30;24.85;;;;;;;8.49;100.00;103118.31;5204139;28;20440;-74
2021/12/15 08:22:56;;;;;;;71.30;23.75;;;;;;;8.48;100.00;103121.97;5204297;28;20096;-74
2021/12/15 08:25:27;;;;;;;65.07;25.35;;;;;;;8.50;100.00;103124.53;5198831;28;20056;-73
2021/12/15 08:27:58;;;;;;;73.43;25.90;;;;;;;8.51;100.00;103124.41;5190275;28;20037;-74
2021/12/15 08:30:32;;;;;;;77.63;25.35;;;;;;;8.53;100.00;103132.34;5186640;28;20025;-73
2021/12/15 08:33:05;;;;;;;76.60;25.45;;;;;;;8.52;100.00;103125.28;5202482;28;20021;-73
2021/12/15 08:35:41;;;;;;;72.10;25.65;;;;;;;8.56;100.00;103124.13;5202173;28;20017;-72
2021/12/15 08:38:12;;;;;;;75.55;25.20;;;;;;;8.57;100.00;103121.34;5214022;28;20111;-72
2021/12/15 08:40:44;;;;;;;72.30;25.10;;;;;;;8.55;100.00;103125.09;5203555;28;20481;-72
2021/12/15 08:43:15;;;;;;;76.60;25.80;;;;;;;8.60;100.00;103119.44;5203553;28;20567;-72
2021/12/15 08:45:54;;;;;;;77.55;25.20;;;;;;;8.62;100.00;103120.19;5202487;28;20021;-72
2021/12/15 08:48:43;;;;;;;77.93;27.38;;;;;;;8.63;100.00;103125.44;5190396;28;20021;-73
2021/12/15 08:51:16;;;;;;;73.82;26.92;;;;;;;8.68;100.00;103125.16;5203087;28;20117;-73
2021/12/15 08:53:47;;;;;;;77.10;25.67;;;;;;;8.70;100.00;103139.31;5203565;28;20026;-72
2021/12/15 08:56:18;;;;;;;69.72;24.83;;;;;;;8.72;100.00;103138.22;5201950;28;20038;-73
2021/12/15 08:58:48;;;;;;;73.95;26.40;;;;;;;8.69;100.00;103125.06;5198847;28;20036;-73
2021/12/15 09:01:19;;;;;;;83.55;27.30;;;;;;;8.76;100.00;103136.22;5196195;28;20616;-73
2021/12/15 09:03:50;;;;;;;73.70;25.17;;;;;;;8.72;100.00;103132.88;5190543;28;20045;-73
2021/12/15 09:06:21;;;;;;;74.25;27.40;;;;;;;8.72;100.00;103129.34;5187410;28;20516;-74
2021/12/15 09:08:52;;;;;;;108.38;39.38;;;;;;;8.73;100.00;103139.94;5191657;28;20029;-73
2021/12/15 09:11:26;;;;;;;73.53;25.58;;;;;;;8.76;100.00;103144.25;5187250;28;20018;-73
2021/12/15 09:13:59;;;;;;;72.53;25.95;;;;;;;8.74;100.00;103144.38;5195815;28;20018;-73
2021/12/15 09:16:32;;;;;;;65.10;25.20;;;;;;;8.76;100.00;103146.94;5193315;28;20786;-74
2021/12/15 09:19:03;;;;;;;71.15;26.42;;;;;;;8.76;100.00;103146.94;5188731;28;20061;-73
2021/12/15 09:21:36;;;;;;;73.97;26.27;;;;;;;8.77;100.00;103141.47;5185958;28;20030;-73
2021/12/15 09:24:07;;;;;;;74.75;25.48;;;;;;;8.79;100.00;103141.41;5187786;28;20057;-73
2021/12/15 09:26:37;;;;;;;73.88;25.40;;;;;;;8.81;100.00;103150.19;5185275;28;20083;-74
2021/12/15 09:29:09;;;;;;;63.88;24.05;;;;;;;8.81;100.00;103148.34;5190008;28;20037;-75
2021/12/15 09:31:40;;;;;;;66.32;25.52;;;;;;;8.81;100.00;103151.03;5188687;28;20021;-75
2021/12/15 09:34:14;;;;;;;66.22;24.58;;;;;;;8.84;100.00;103158.03;5188101;28;20030;-74
2021/12/15 09:36:50;;;;;;;67.20;24.63;;;;;;;8.85;100.00;103157.06;5190441;28;20385;-74
2021/12/15 09:39:21;;;;;;;;;;;;;;;8.85;100.00;103165.09;5189385;28;20277;-73
2021/12/15 09:41:52;;;;;;;63.67;24.73;;;;;;;8.92;100.00;103169.06;5181477;28;19955;-74
2021/12/15 09:44:26;;;;;;;64.93;26.83;;;;;;;8.94;100.00;103167.19;5185273;28;20026;-74
2021/12/15 10:02:03;;;;;;;63.15;24.35;;;;;;;9.05;100.00;103183.41;5186554;28;20037;-73
2021/12/15 10:04:15;;;;;;;57.33;23.92;;;;;;;9.06;100.00;103187.78;5196676;28;20017;-72
2021/12/15 10:07:16;;;;;;;60.22;25.20;;;;;;;9.07;100.00;103186.81;5179909;28;20034;-71
2021/12/15 10:18:35;;;;;;;60.97;23.80;;;;;;;9.17;100.00;103195.13;5188333;28;20060;-72
2021/12/15 10:21:07;;;;;;;59.22;25.00;;;;;;;9.18;100.00;103198.66;5187892;28;20068;-73
2021/12/15 10:23:41;;;;;;;60.17;26.48;;;;;;;9.21;100.00;103195.78;5182277;28;20053;-72
2021/12/15 10:26:12;;;;;;;60.55;24.23;;;;;;;9.20;100.00;103191.41;5188759;28;20580;-73
2021/12/15 10:28:48;;;;;;;58.83;28.63;;;;;;;9.26;100.00;103193.66;5186348;28;20752;-73
2021/12/15 10:31:22;;;;;;;57.80;24.33;;;;;;;9.24;100.00;103190.25;5186336;28;20025;-72
2021/12/15 10:33:58;;;;;;;60.95;24.50;;;;;;;9.27;100.00;103193.56;5178526;28;20493;-73
2021/12/15 10:36:33;;;;;;;77.88;33.15;;;;;;;9.28;100.00;103192.59;5185365;28;20116;-73
2021/12/15 10:39:07;;;;;;;66.25;26.73;;;;;;;9.24;100.00;103188.41;5188015;28;20021;-73
2021/12/15 10:41:41;;;;;;;66.30;29.42;;;;;;;9.32;100.00;103185.22;5190257;28;20028;-73
2021/12/15 10:44:15;;;;;;;55.58;24.60;;;;;;;9.36;100.00;103184.06;5183399;28;20025;-72
2021/12/15 10:46:50;;;;;;;58.83;24.05;;;;;;;9.36;100.00;103181.38;5190925;28;20034;-73
2021/12/15 10:49:24;;;;;;;52.55;22.98;;;;;;;9.41;100.00;103183.75;5187838;28;20552;-72
2021/12/15 10:51:59;;;;;;;63.47;25.38;;;;;;;9.36;100.00;103183.22;5185926;28;20184;-72
2021/12/15 10:54:33;;;;;;;;;;;;;;;9.36;100.00;103186.75;5187910;28;20026;-72
2021/12/15 10:57:10;;;;;;;54.78;23.95;;;;;;;9.34;100.00;103202.06;5183257;28;19909;-72
2021/12/15 10:59:45;;;;;;;55.90;24.95;;;;;;;9.29;100.00;103204.19;5187785;28;20035;-72
2021/12/15 11:02:23;;;;;;;54.13;23.88;;;;;;;9.36;100.00;103189.41;5188295;28;20026;-73
2021/12/15 11:05:00;;;;;;;52.78;23.25;;;;;;;9.37;100.00;103187.59;5183960;28;20072;-72
2021/12/15 11:07:33;;;;;;;59.95;26.08;;;;;;;9.30;100.00;103197.88;5186099;28;20060;-73
2021/12/15 11:10:07;;;;;;;52.30;23.33;;;;;;;9.31;100.00;103196.91;5188278;28;20037;-72
2021/12/15 11:12:44;;;;;;;120.03;53.17;;;;;;;9.38;100.00;103181.28;5187565;28;20088;-72
2021/12/15 11:15:22;;;;;;;54.10;23.88;;;;;;;9.33;100.00;103179.75;5186874;28;20566;-72
2021/12/15 11:17:54;;;;;;;54.63;23.08;;;;;;;9.37;100.00;103184.91;5189509;28;20025;-72
2021/12/15 11:20:30;;;;;;;52.22;23.33;;;;;;;9.36;100.00;103188.56;5189985;28;20501;-72
2021/12/15 11:23:15;;;;;;;60.00;30.50;;;;;;;9.50;100.00;103184.00;5190378;28;20063;-72
2021/12/15 11:25:53;;;;;;;52.20;24.17;;;;;;;9.50;100.00;103177.81;5190380;28;20021;-72
2021/12/15 11:28:30;;;;;;;55.80;24.75;;;;;;;9.49;100.00;103179.63;5184183;28;20445;-73
2021/12/15 11:31:06;;;;;;;50.33;23.63;;;;;;;9.51;100.00;103179.50;5179618;28;20053;-72
2021/12/15 11:33:41;;;;;;;57.55;24.05;;;;;;;9.48;100.00;103172.53;5188680;28;20053;-72
2021/12/15 11:36:13;;;;;;;51.08;23.33;;;;;;;9.51;100.00;103180.38;5183671;28;20071;-71
2021/12/15 11:38:49;;;;;;;49.28;22.90;;;;;;;9.54;100.00;103177.50;5191488;28;20497;-72
2021/12/15 11:41:22;;;;;;;;;;;;;;;9.51;100.00;103177.69;5190367;28;20045;-71
2021/12/15 11:43:55;;;;;;;50.75;23.05;;;;;;;9.43;100.00;103174.66;5191053;28;19964;-72
2021/12/15 11:46:34;;;;;;;47.97;22.02;;;;;;;9.45;100.00;103177.25;5191079;28;20120;-72
2021/12/15 11:49:09;;;;;;;49.20;22.80;;;;;;;9.47;100.00;103176.16;5194535;28;20076;-71
2021/12/15 11:51:45;;;;;;;48.22;21.55;;;;;;;9.45;100.00;103174.56;5194063;28;20100;-71
2021/12/15 11:54:28;;;;;;;48.40;21.95;;;;;;;9.44;100.00;103171.03;5189391;28;20030;-71
2021/12/15 11:57:01;;;;;;;48.53;22.30;;;;;;;9.47;100.00;103168.13;5189571;28;20018;-73
2021/12/15 11:59:37;;;;;;;48.97;22.20;;;;;;;9.51;100.00;103175.00;5184653;28;20030;-71
2021/12/15 12:02:18;;;;;;;46.78;21.40;;;;;;;9.53;100.00;103175.75;5187766;28;20026;-72
2021/12/15 12:04:52;;;;;;;43.85;20.60;;;;;;;9.49;100.00;103168.03;5187433;28;20022;-72
2021/12/15 12:07:28;;;;;;;49.10;22.55;;;;;;;9.48;100.00;103161.81;5187174;28;20033;-72
2021/12/15 12:10:04;;;;;;;41.53;19.85;;;;;;;9.50;100.00;103159.03;5181912;28;20018;-72
2021/12/15 12:12:40;;;;;;;50.40;22.60;;;;;;;9.51;100.00;103158.94;5192325;28;20049;-71
2021/12/15 12:15:16;;;;;;;57.22;30.40;;;;;;;9.57;100.00;103165.69;5184326;28;20045;-72
2021/12/15 12:17:49;;;;;;;48.40;21.67;;;;;;;9.53;100.00;103167.72;5178173;28;20056;-72
2021/12/15 12:20:22;;;;;;;45.05;22.58;;;;;;;9.53;100.00;103167.72;5192354;28;20115;-74
2021/12/15 12:22:56;;;;;;;51.45;26.95;;;;;;;9.57;100.00;103171.06;5185621;28;20400;-74
2021/12/15 12:25:33;;;;;;;44.10;19.83;;;;;;;9.52;100.00;103163.31;5184497;28;20029;-73
2021/12/15 12:28:06;;;;;;;51.78;23.25;;;;;;;9.50;100.00;103159.03;5190182;28;20371;-74
2021/12/15 12:30:41;;;;;;;46.25;21.08;;;;;;;9.46;100.00;103161.06;5191636;28;20034;-73
2021/12/15 12:33:14;;;;;;;47.83;21.13;;;;;;;9.46;100.00;103155.69;5188802;28;20037;-72
2021/12/15 12:35:48;;;;;;;42.65;18.95;;;;;;;9.45;100.00;103156.66;5194962;28;20024;-70
2021/12/15 12:38:23;;;;;;;43.40;19.98;;;;;;;9.47;100.00;103164.59;5184054;28;20042;-73
2021/12/15 12:40:58;;;;;;;46.28;20.00;;;;;;;9.50;100.00;103157.22;5186155;28;20646;-74